createdAt,value
2022-10-30T00:00:35.126Z,4.07
2022-10-30T00:03:05.153Z,3.85
2022-10-30T00:05:37.687Z,4.22
2022-10-30T00:08:08.040Z,4.40
2022-10-30T00:10:38.107Z,4.13
2022-10-30T00:13:08.103Z,4.20
2022-10-30T00:15:38.192Z,4.15
2022-10-30T00:18:08.516Z,4.28
2022-10-30T00:20:41.692Z,3.40
2022-10-30T00:23:11.568Z,3.60
2022-10-30T00:25:41.516Z,3.97
2022-10-30T00:28:11.567Z,3.47
2022-10-30T00:30:41.911Z,3.90
2022-10-30T00:33:11.805Z,3.88
2022-10-30T00:35:50.946Z,3.58
2022-10-30T00:38:20.859Z,3.38
2022-10-30T00:40:52.119Z,4.55
2022-10-30T00:43:33.752Z,3.38
2022-10-30T00:46:08.496Z,3.90
2022-10-30T00:48:38.599Z,3.45
2022-10-30T00:51:13.737Z,3.90
2022-10-30T00:53:44.832Z,3.97
2022-10-30T00:56:17.399Z,3.65
2022-10-30T00:58:52.526Z,3.83
2022-10-30T01:01:27.322Z,3.38
2022-10-30T01:03:59.723Z,3.65
2022-10-30T01:06:35.166Z,3.95
2022-10-30T01:09:06.422Z,3.42
2022-10-30T01:11:37.227Z,3.17
2022-10-30T01:14:11.179Z,3.65
2022-10-30T01:17:00.450Z,3.67
2022-10-30T01:19:42.998Z,3.75
2022-10-30T01:22:30.101Z,2.95
2022-10-30T01:25:14.582Z,3.97
2022-10-30T01:28:01.895Z,3.63
2022-10-30T01:30:44.508Z,2.85
2022-10-30T01:33:25.336Z,3.50
2022-10-30T01:36:01.783Z,4.20
2022-10-30T01:38:38.820Z,3.90
2022-10-30T01:41:09.720Z,4.15
2022-10-30T01:43:40.676Z,3.17
2022-10-30T01:46:34.300Z,3.60
2022-10-30T01:49:33.291Z,3.13
2022-10-30T01:52:11.307Z,3.72
2022-10-30T01:54:49.329Z,3.05
2022-10-30T01:57:34.520Z,5.35
2022-10-30T02:00:08.808Z,2.88
2022-10-30T02:02:44.642Z,3.67
2022-10-30T02:05:24.108Z,3.60
2022-10-30T02:07:54.513Z,4.50
2022-10-30T02:10:28.731Z,3.50
2022-10-30T02:15:29.102Z,3.28
2022-10-30T02:17:59.907Z,3.40
2022-10-30T02:20:33.919Z,3.70
2022-10-30T02:23:04.747Z,4.25
2022-10-30T02:25:37.216Z,3.20
2022-10-30T02:28:07.637Z,3.65
2022-10-30T02:30:37.734Z,3.58
2022-10-30T02:33:07.823Z,3.40
2022-10-30T02:35:40.630Z,3.53
2022-10-30T02:38:11.589Z,4.25
2022-10-30T02:40:41.768Z,3.40
2022-10-30T02:43:11.991Z,4.60
2022-10-30T02:45:42.166Z,3.03
2022-10-30T02:48:12.481Z,3.17
2022-10-30T02:50:44.984Z,3.10
2022-10-30T02:53:15.339Z,3.80
2022-10-30T02:55:46.011Z,3.50
2022-10-30T02:58:16.238Z,3.03
2022-10-30T03:00:46.482Z,3.25
2022-10-30T03:03:19.984Z,3.88
2022-10-30T03:05:55.714Z,3.28
2022-10-30T03:08:25.911Z,3.85
2022-10-30T03:11:01.292Z,3.20
2022-10-30T03:13:32.727Z,3.92
2022-10-30T03:16:03.904Z,3.05
2022-10-30T03:18:35.879Z,3.38
2022-10-30T03:21:15.781Z,2.88
2022-10-30T03:23:47.764Z,2.78
2022-10-30T03:26:17.696Z,3.55
2022-10-30T03:28:54.199Z,3.30
2022-10-30T03:31:24.587Z,3.70
2022-10-30T03:34:11.320Z,3.38
2022-10-30T03:36:47.116Z,3.13
2022-10-30T03:39:17.507Z,3.70
2022-10-30T03:41:49.435Z,3.13
2022-10-30T03:44:20.769Z,3.38
2022-10-30T03:46:51.823Z,3.78
2022-10-30T03:49:31.675Z,3.35
2022-10-30T03:52:06.141Z,3.58
2022-10-30T03:54:36.322Z,3.20
2022-10-30T03:57:06.342Z,4.07
2022-10-30T03:59:45.235Z,3.75
2022-10-30T04:02:31.038Z,3.25
2022-10-30T04:05:01.276Z,3.53
2022-10-30T04:07:33.784Z,3.33
2022-10-30T04:10:04.051Z,2.85
2022-10-30T04:12:34.290Z,3.47
2022-10-30T04:15:04.487Z,4.05
2022-10-30T04:17:34.690Z,3.67
2022-10-30T04:20:08.957Z,3.50
2022-10-30T04:22:41.448Z,3.13
2022-10-30T04:25:12.084Z,3.88
2022-10-30T04:27:46.314Z,4.13
2022-10-30T04:30:16.921Z,3.90
2022-10-30T04:32:50.591Z,3.30
2022-10-30T04:35:22.985Z,3.70
2022-10-30T04:38:01.244Z,3.67
2022-10-30T04:40:33.038Z,3.75
2022-10-30T04:43:07.382Z,3.40
2022-10-30T04:45:37.851Z,3.92
2022-10-30T04:48:11.364Z,3.38
2022-10-30T04:50:41.544Z,3.97
2022-10-30T04:53:16.768Z,3.80
2022-10-30T04:55:50.675Z,3.33
2022-10-30T04:58:21.746Z,3.75
2022-10-30T05:01:02.078Z,4.38
2022-10-30T05:03:33.618Z,4.18
2022-10-30T05:06:07.499Z,3.15
2022-10-30T05:08:39.957Z,2.80
2022-10-30T05:11:21.263Z,4.35
2022-10-30T05:13:51.192Z,2.90
2022-10-30T05:16:21.394Z,4.45
2022-10-30T05:18:51.337Z,2.88
2022-10-30T05:21:21.664Z,3.72
2022-10-30T05:23:54.107Z,3.08
2022-10-30T05:26:24.101Z,2.80
2022-10-30T05:28:55.832Z,3.00
2022-10-30T05:31:26.071Z,2.58
2022-10-30T05:34:25.383Z,3.03
2022-10-30T05:36:56.297Z,3.58
2022-10-30T05:39:28.854Z,3.65
2022-10-30T05:41:59.513Z,3.42
2022-10-30T05:44:59.859Z,3.35
2022-10-30T05:47:32.052Z,3.85
2022-10-30T05:50:02.302Z,4.25
2022-10-30T05:52:32.686Z,3.03
2022-10-30T05:55:06.300Z,3.35
2022-10-30T05:58:00.582Z,3.20
2022-10-30T06:00:32.455Z,3.30
2022-10-30T06:03:03.756Z,3.15
2022-10-30T06:05:37.075Z,3.42
2022-10-30T06:08:07.600Z,3.67
2022-10-30T06:10:40.550Z,4.55
2022-10-30T06:13:19.375Z,3.75
2022-10-30T06:16:05.544Z,5.00
2022-10-30T06:19:17.556Z,4.57
2022-10-30T06:21:49.863Z,4.10
2022-10-30T06:24:37.524Z,4.57
2022-10-30T06:27:42.438Z,4.72
2022-10-30T06:30:13.286Z,4.30
2022-10-30T06:32:43.439Z,4.47
2022-10-30T06:35:13.655Z,4.10
2022-10-30T06:37:50.112Z,4.85
2022-10-30T06:40:20.758Z,3.63
2022-10-30T06:43:08.228Z,4.30
2022-10-30T06:45:45.832Z,3.55
2022-10-30T06:48:16.288Z,4.18
2022-10-30T06:50:51.368Z,4.50
2022-10-30T06:53:21.615Z,5.50
2022-10-30T06:55:58.954Z,3.60
2022-10-30T06:58:51.864Z,4.13
2022-10-30T07:01:47.648Z,3.35
2022-10-30T07:04:25.759Z,4.13
2022-10-30T07:06:58.614Z,4.53
2022-10-30T07:09:29.047Z,4.40
2022-10-30T07:12:04.070Z,4.63
2022-10-30T07:14:59.477Z,4.20
2022-10-30T07:17:38.132Z,4.30
2022-10-30T07:20:15.127Z,4.22
2022-10-30T07:22:45.407Z,4.05
2022-10-30T07:25:15.653Z,4.68
2022-10-30T07:28:04.471Z,4.03
2022-10-30T07:31:01.032Z,3.67
2022-10-30T07:33:54.389Z,4.35
2022-10-30T07:36:38.096Z,3.55
2022-10-30T07:39:27.364Z,3.58
2022-10-30T07:42:21.677Z,4.00
2022-10-30T07:45:11.606Z,3.70
2022-10-30T07:48:22.588Z,4.13
2022-10-30T07:51:18.648Z,3.72
2022-10-30T07:53:48.845Z,3.38
2022-10-30T07:56:20.687Z,3.35
2022-10-30T07:59:13.730Z,3.90
2022-10-30T08:02:15.542Z,3.42
2022-10-30T08:05:04.679Z,3.58
2022-10-30T08:07:45.868Z,3.30
2022-10-30T08:10:16.067Z,3.42
2022-10-30T08:12:48.245Z,3.90
2022-10-30T08:15:18.490Z,3.97
2022-10-30T08:17:49.440Z,3.60
2022-10-30T08:20:23.708Z,2.80
2022-10-30T08:22:56.028Z,4.05
2022-10-30T08:25:29.448Z,4.03
2022-10-30T08:28:01.699Z,3.47
2022-10-30T08:30:38.070Z,3.28
2022-10-30T08:33:10.669Z,3.10
2022-10-30T08:36:02.602Z,3.90
2022-10-30T08:38:32.846Z,2.95
2022-10-30T08:41:14.317Z,3.35
2022-10-30T08:43:48.786Z,3.30
2022-10-30T08:46:19.027Z,2.97
2022-10-30T08:48:49.399Z,3.13
2022-10-30T08:51:23.972Z,3.88
2022-10-30T08:53:54.063Z,3.95
2022-10-30T08:56:24.579Z,3.05
2022-10-30T08:59:01.402Z,2.53
2022-10-30T09:01:31.688Z,2.88
2022-10-30T09:04:16.887Z,2.92
2022-10-30T09:07:07.652Z,3.70
2022-10-30T09:09:58.576Z,3.17
2022-10-30T09:12:30.474Z,2.55
2022-10-30T09:15:00.701Z,3.03
2022-10-30T09:17:32.412Z,2.50
2022-10-30T09:20:02.631Z,3.00
2022-10-30T09:22:43.308Z,2.55
2022-10-30T09:25:14.376Z,3.08
2022-10-30T09:28:02.283Z,3.38
2022-10-30T09:30:45.035Z,3.00
2022-10-30T09:33:26.929Z,3.50
2022-10-30T09:36:22.245Z,3.15
2022-10-30T09:38:55.539Z,3.63
2022-10-30T09:41:53.164Z,3.28
2022-10-30T09:44:34.431Z,2.80
2022-10-30T09:47:14.766Z,2.13
2022-10-30T09:50:06.467Z,2.90
2022-10-30T09:52:45.324Z,2.85
2022-10-30T09:55:33.364Z,2.67
2022-10-30T09:58:14.757Z,3.03
2022-10-30T10:00:51.101Z,3.55
2022-10-30T10:03:44.730Z,2.70
2022-10-30T10:06:37.120Z,2.80
2022-10-30T10:09:21.616Z,2.58
2022-10-30T10:11:58.369Z,2.97
2022-10-30T10:14:32.018Z,2.28
2022-10-30T10:17:06.638Z,2.35
2022-10-30T10:19:41.671Z,2.40
2022-10-30T10:22:23.109Z,2.60
2022-10-30T10:24:53.752Z,3.15
2022-10-30T10:27:52.781Z,2.78
2022-10-30T10:30:23.915Z,2.75
2022-10-30T10:33:18.266Z,2.45
2022-10-30T10:35:59.286Z,2.85
2022-10-30T10:38:52.588Z,2.53
2022-10-30T10:41:33.706Z,2.65
2022-10-30T10:44:20.096Z,2.53
2022-10-30T10:47:07.194Z,2.55
2022-10-30T10:49:52.888Z,3.03
2022-10-30T10:52:27.605Z,2.42
2022-10-30T10:55:00.954Z,2.92
2022-10-30T10:57:35.033Z,2.00
2022-10-30T11:00:10.563Z,2.65
2022-10-30T11:02:44.893Z,2.83
2022-10-30T11:05:24.105Z,2.58
2022-10-30T11:07:55.037Z,2.53
2022-10-30T11:10:26.320Z,2.10
2022-10-30T11:12:56.670Z,2.40
2022-10-30T11:15:40.706Z,2.33
2022-10-30T11:18:14.726Z,2.25
2022-10-30T11:20:51.292Z,2.25
2022-10-30T11:23:40.069Z,2.63
2022-10-30T11:26:29.634Z,2.80
2022-10-30T11:29:04.772Z,2.40
2022-10-30T11:31:40.638Z,2.60
2022-10-30T11:34:26.080Z,2.22
2022-10-30T11:36:57.636Z,2.08
2022-10-30T11:39:30.178Z,2.28
2022-10-30T11:42:04.086Z,2.28
2022-10-30T11:44:37.939Z,2.58
2022-10-30T11:47:12.554Z,2.78
2022-10-30T11:49:48.632Z,2.70
2022-10-30T11:52:21.303Z,2.13
2022-10-30T11:54:54.168Z,2.28
2022-10-30T11:57:26.689Z,2.37
2022-10-30T12:00:04.687Z,2.80
2022-10-30T12:02:48.465Z,2.55
2022-10-30T12:05:35.660Z,2.55
2022-10-30T12:08:24.728Z,2.28
2022-10-30T12:11:02.316Z,2.22
2022-10-30T12:13:39.136Z,2.53
2022-10-30T12:16:18.330Z,2.20
2022-10-30T12:19:15.526Z,2.42
2022-10-30T12:21:49.318Z,3.25
2022-10-30T12:26:53.884Z,2.33
2022-10-30T12:29:41.643Z,2.70
2022-10-30T12:32:21.451Z,2.15
2022-10-30T12:35:01.881Z,2.28
2022-10-30T12:37:36.964Z,2.42
2022-10-30T12:40:11.172Z,2.70
2022-10-30T12:42:46.693Z,2.17
2022-10-30T12:45:20.016Z,3.00
2022-10-30T12:47:54.596Z,2.20
2022-10-30T12:50:30.485Z,2.28
2022-10-30T12:53:05.276Z,2.58
2022-10-30T12:55:38.420Z,2.33
2022-10-30T12:58:20.658Z,1.88
2022-10-30T13:00:57.419Z,2.00
2022-10-30T13:03:32.953Z,2.22
2022-10-30T13:06:12.579Z,1.67
2022-10-30T13:08:50.201Z,2.17
2022-10-30T13:11:31.462Z,1.95
2022-10-30T13:14:02.940Z,2.30
2022-10-30T13:16:36.044Z,1.67
2022-10-30T13:19:06.392Z,2.28
2022-10-30T13:21:46.348Z,1.75
2022-10-30T13:24:21.655Z,2.35
2022-10-30T13:26:58.475Z,2.10
2022-10-30T13:29:35.355Z,1.67
2022-10-30T13:32:17.216Z,1.92
2022-10-30T13:34:55.096Z,2.05
2022-10-30T13:37:34.199Z,1.70
2022-10-30T13:40:14.585Z,2.40
2022-10-30T13:42:55.517Z,1.85
2022-10-30T13:45:51.465Z,2.10
2022-10-30T13:48:29.426Z,2.30
2022-10-30T13:51:20.308Z,2.05
2022-10-30T13:54:03.590Z,2.65
2022-10-30T13:56:34.399Z,2.15
2022-10-30T13:59:12.704Z,2.45
2022-10-30T14:01:50.162Z,2.28
2022-10-30T14:04:29.485Z,2.00
2022-10-30T14:07:07.012Z,2.67
2022-10-30T14:09:44.661Z,2.20
2022-10-30T14:12:44.433Z,1.90
2022-10-30T14:15:23.485Z,2.47
2022-10-30T14:18:23.460Z,2.80
2022-10-30T14:20:54.547Z,1.80
2022-10-30T14:23:26.503Z,2.80
2022-10-30T14:26:26.153Z,1.70
2022-10-30T14:28:58.893Z,2.20
2022-10-30T14:31:39.350Z,2.03
2022-10-30T14:34:44.753Z,8.05
2022-10-30T14:37:16.482Z,2.38
2022-10-30T14:39:47.747Z,1.90
2022-10-30T14:42:27.744Z,2.15
2022-10-30T14:45:11.521Z,3.10
2022-10-30T14:47:57.374Z,2.88
2022-10-30T14:50:57.950Z,2.88
2022-10-30T14:53:44.989Z,2.70
2022-10-30T14:56:26.668Z,2.10
2022-10-30T14:59:23.762Z,2.45
2022-10-30T15:02:30.498Z,2.30
2022-10-30T15:05:17.467Z,2.28
2022-10-30T15:07:54.323Z,2.08
2022-10-30T15:10:31.841Z,2.53
2022-10-30T15:13:18.012Z,2.10
2022-10-30T15:16:00.690Z,2.33
2022-10-30T15:18:31.716Z,2.30
2022-10-30T15:21:06.852Z,1.83
2022-10-30T15:23:39.240Z,2.35
2022-10-30T15:26:18.543Z,2.53
2022-10-30T15:28:52.414Z,3.10
2022-10-30T15:33:57.924Z,2.28
2022-10-30T15:36:30.692Z,2.50
2022-10-30T15:39:09.788Z,2.25
2022-10-30T15:41:46.088Z,2.85
2022-10-30T15:44:19.016Z,2.42
2022-10-30T15:46:53.498Z,2.90
2022-10-30T15:49:31.619Z,2.60
2022-10-30T15:52:02.417Z,3.20
2022-10-30T15:54:33.385Z,3.90
2022-10-30T15:57:49.430Z,6.93
2022-10-30T15:59:57.604Z,8.38
2022-10-30T16:04:59.882Z,10.60
2022-10-30T16:07:31.491Z,10.73
2022-10-30T16:10:02.902Z,8.48
2022-10-30T16:12:35.114Z,5.85
2022-10-30T16:15:09.669Z,4.40
2022-10-30T16:17:42.184Z,4.65
2022-10-30T16:20:13.433Z,4.85
2022-10-30T16:22:43.443Z,4.00
2022-10-30T16:25:14.354Z,4.28
2022-10-30T16:27:46.642Z,4.32
2022-10-30T16:30:18.936Z,3.72
2022-10-30T16:32:55.482Z,3.95
2022-10-30T16:35:27.025Z,3.92
2022-10-30T16:37:59.795Z,3.60
2022-10-30T16:40:31.626Z,4.00
2022-10-30T16:43:05.699Z,3.67
2022-10-30T16:48:37.041Z,3.55
2022-10-30T16:51:07.732Z,3.75
2022-10-30T16:53:37.615Z,4.50
2022-10-30T16:56:21.852Z,4.18
2022-10-30T16:58:52.755Z,4.15
2022-10-30T17:01:28.766Z,5.35
2022-10-30T17:04:01.899Z,4.18
2022-10-30T17:06:39.876Z,4.90
2022-10-30T17:09:12.315Z,3.67
2022-10-30T17:11:46.685Z,4.00
2022-10-30T17:14:21.853Z,3.45
2022-10-30T17:16:56.855Z,3.50
2022-10-30T17:19:50.068Z,3.33
2022-10-30T17:22:23.154Z,3.35
2022-10-30T17:24:53.344Z,3.87
2022-10-30T17:27:47.953Z,3.78
2022-10-30T17:30:35.357Z,3.30
2022-10-30T17:33:06.427Z,3.38
2022-10-30T17:35:41.933Z,3.55
2022-10-30T17:38:12.036Z,4.20
2022-10-30T17:40:43.570Z,4.28
2022-10-30T17:43:16.180Z,4.32
2022-10-30T17:45:46.383Z,4.63
2022-10-30T17:48:17.935Z,4.25
2022-10-30T17:50:50.415Z,5.45
2022-10-30T17:53:23.023Z,4.72
2022-10-30T17:56:05.056Z,6.03
2022-10-30T17:58:35.079Z,5.72
2022-10-30T18:01:05.198Z,5.75
2022-10-30T18:03:35.301Z,6.00
2022-10-30T18:06:09.770Z,5.28
2022-10-30T18:08:39.951Z,6.07
2022-10-30T18:11:13.625Z,5.35
2022-10-30T18:13:44.075Z,5.75
2022-10-30T18:16:15.561Z,5.57
2022-10-30T18:18:47.017Z,5.03
2022-10-30T18:21:22.278Z,5.85
2022-10-30T18:23:53.964Z,5.88
2022-10-30T18:26:26.035Z,6.32
2022-10-30T18:28:56.492Z,6.10
2022-10-30T18:31:27.526Z,6.57
2022-10-30T18:33:57.415Z,5.78
2022-10-30T18:36:29.979Z,6.85
2022-10-30T18:38:59.896Z,6.30
2022-10-30T18:41:34.432Z,6.70
2022-10-30T18:44:04.784Z,6.72
2022-10-30T18:46:37.197Z,7.22
2022-10-30T18:49:07.448Z,6.72
2022-10-30T18:51:40.621Z,6.28
2022-10-30T18:54:16.160Z,6.47
2022-10-30T18:56:46.554Z,6.00
2022-10-30T18:59:16.732Z,5.70
2022-10-30T19:01:46.674Z,6.60
2022-10-30T19:04:21.707Z,5.68
2022-10-30T19:06:54.800Z,5.68
2022-10-30T19:09:24.736Z,6.00
2022-10-30T19:11:54.644Z,5.68
2022-10-30T19:14:24.783Z,6.70
2022-10-30T19:16:54.657Z,6.57
2022-10-30T19:19:24.594Z,5.55
2022-10-30T19:21:57.070Z,5.40
2022-10-30T19:24:26.936Z,5.20
2022-10-30T19:26:57.086Z,5.43
2022-10-30T19:29:27.249Z,5.10
2022-10-30T19:31:57.136Z,4.20
2022-10-30T19:34:27.093Z,4.80
2022-10-30T19:36:59.637Z,4.68
2022-10-30T19:39:32.740Z,4.57
2022-10-30T19:42:02.894Z,4.43
2022-10-30T19:44:32.782Z,4.40
2022-10-30T19:47:02.708Z,4.72
2022-10-30T19:49:32.600Z,4.97
2022-10-30T19:52:05.129Z,5.15
2022-10-30T19:54:34.979Z,4.57
2022-10-30T19:57:04.932Z,4.82
2022-10-30T19:59:34.870Z,5.25
2022-10-30T20:02:04.933Z,5.40
2022-10-30T20:04:35.264Z,4.95
2022-10-30T20:07:07.708Z,4.95
2022-10-30T20:09:37.633Z,5.45
2022-10-30T20:12:07.786Z,5.38
2022-10-30T20:14:37.649Z,4.82
2022-10-30T20:17:07.516Z,5.72
2022-10-30T20:19:37.436Z,5.45
2022-10-30T20:22:12.861Z,4.75
2022-10-30T20:24:42.779Z,4.82
2022-10-30T20:27:13.453Z,5.30
2022-10-30T20:29:45.616Z,5.05
2022-10-30T20:32:15.524Z,5.93
2022-10-30T20:34:45.413Z,5.20
2022-10-30T20:37:17.869Z,5.47
2022-10-30T20:39:47.716Z,4.70
2022-10-30T20:42:20.811Z,4.72
2022-10-30T20:44:50.984Z,5.60
2022-10-30T20:47:21.121Z,4.65
2022-10-30T20:49:51.519Z,5.63
2022-10-30T20:52:24.004Z,5.78
2022-10-30T20:54:54.335Z,5.72
2022-10-30T20:57:24.329Z,5.35
2022-10-30T20:59:54.540Z,5.75
2022-10-30T21:02:24.499Z,5.22
2022-10-30T21:04:54.444Z,5.35
2022-10-30T21:07:28.378Z,4.95
2022-10-30T21:09:58.557Z,5.82
2022-10-30T21:12:28.808Z,4.85
2022-10-30T21:14:58.665Z,5.22
2022-10-30T21:17:28.609Z,5.68
2022-10-30T21:19:58.490Z,5.85
2022-10-30T21:22:30.936Z,5.38
2022-10-30T21:25:00.811Z,6.65
2022-10-30T21:27:30.727Z,5.32
2022-10-30T21:30:01.076Z,6.43
2022-10-30T21:32:32.897Z,5.65
2022-10-30T21:35:03.043Z,5.82
2022-10-30T21:37:37.236Z,8.15
2022-10-30T21:42:37.674Z,7.43
2022-10-30T21:45:08.763Z,7.00
2022-10-30T21:47:38.662Z,6.05
2022-10-30T21:50:12.210Z,5.78
2022-10-30T21:52:45.780Z,6.00
2022-10-30T21:55:15.720Z,6.70
2022-10-30T21:57:45.602Z,6.70
2022-10-30T22:00:17.465Z,5.70
2022-10-30T22:02:47.592Z,5.90
2022-10-30T22:05:17.806Z,5.95
2022-10-30T22:07:50.356Z,5.75
2022-10-30T22:10:35.146Z,5.95
2022-10-30T22:13:05.820Z,6.13
2022-10-30T22:15:40.614Z,6.45
2022-10-30T22:18:11.725Z,6.20
2022-10-30T22:20:41.912Z,6.13
2022-10-30T22:23:14.403Z,6.30
2022-10-30T22:25:44.590Z,6.10
2022-10-30T22:28:14.880Z,5.97
2022-10-30T22:30:45.037Z,5.75
2022-10-30T22:33:16.510Z,6.43
2022-10-30T22:35:46.724Z,5.82
2022-10-30T22:38:19.257Z,5.88
2022-10-30T22:40:49.148Z,5.30
2022-10-30T22:43:19.082Z,6.75
2022-10-30T22:45:55.695Z,5.70
2022-10-30T22:48:25.596Z,6.45
2022-10-30T22:51:00.020Z,5.65
2022-10-30T22:53:33.835Z,5.68
2022-10-30T22:56:14.438Z,6.18
2022-10-30T22:58:44.953Z,5.63
2022-10-30T23:01:17.677Z,5.65
2022-10-30T23:03:48.373Z,6.22
2022-10-30T23:06:18.657Z,7.22
2022-10-30T23:08:51.566Z,6.82
2022-10-30T23:11:21.785Z,5.57
2022-10-30T23:13:52.097Z,5.95
2022-10-30T23:16:23.800Z,7.25
2022-10-30T23:18:54.599Z,6.40
2022-10-30T23:21:27.007Z,6.28
2022-10-30T23:24:00.398Z,6.65
2022-10-30T23:26:32.307Z,7.50
2022-10-30T23:29:03.024Z,6.60
2022-10-30T23:31:35.265Z,5.78
2022-10-30T23:34:08.185Z,5.45
2022-10-30T23:36:38.859Z,6.00
2022-10-30T23:39:13.871Z,6.60
2022-10-30T23:41:43.965Z,6.32
2022-10-30T23:44:15.775Z,6.90
2022-10-30T23:46:46.078Z,6.45
2022-10-30T23:49:16.282Z,5.05
2022-10-30T23:51:46.188Z,5.55
2022-10-30T23:54:18.642Z,6.05
2022-10-30T23:56:49.044Z,5.28
2022-10-30T23:59:19.248Z,5.35
